createdAt,value
2016-12-12T00:01:07.875Z,75.3
2016-12-12T00:02:22.040Z,75.96
2016-12-12T00:03:35.870Z,75.78
2016-12-12T00:04:49.464Z,75.87
2016-12-12T00:06:03.054Z,75.78
2016-12-12T00:07:17.139Z,75.87
2016-12-12T00:08:30.649Z,75.4
2016-12-12T00:09:44.487Z,75.4
2016-12-12T00:10:58.422Z,75.96
2016-12-12T00:12:12.041Z,75.59
2016-12-12T00:13:26.129Z,75.59
2016-12-12T00:14:39.772Z,76.06
2016-12-12T00:15:53.310Z,76.44
2016-12-12T00:17:07.149Z,76.54
2016-12-12T00:18:20.735Z,76.16
2016-12-12T00:19:34.798Z,76.16
2016-12-12T00:20:48.453Z,76.63
2016-12-12T00:22:02.335Z,76.54
2016-12-12T00:23:16.127Z,76.35
2016-12-12T00:24:29.681Z,76.63
2016-12-12T00:25:43.970Z,75.96
2016-12-12T00:26:57.486Z,75.59
2016-12-12T00:28:11.180Z,76.63
2016-12-12T00:29:24.987Z,75.78
2016-12-12T00:30:38.513Z,75.59
2016-12-12T00:31:53.027Z,75.68
2016-12-12T00:33:06.563Z,75.59
2016-12-12T00:34:20.090Z,75.87
2016-12-12T00:35:33.930Z,75.59
2016-12-12T00:36:47.509Z,75.87
2016-12-12T00:38:01.490Z,76.16
2016-12-12T00:39:15.337Z,76.06
2016-12-12T00:40:29.304Z,75.68
2016-12-12T00:41:42.833Z,76.06
2016-12-12T00:42:56.458Z,75.96
2016-12-12T00:44:10.565Z,75.59
2016-12-12T00:45:24.350Z,76.25
2016-12-12T00:46:37.901Z,75.87
2016-12-12T00:47:51.470Z,76.25
2016-12-12T00:49:05.015Z,76.16
2016-12-12T00:50:19.149Z,76.54
2016-12-12T00:51:32.681Z,76.25
2016-12-12T00:52:46.855Z,76.63
2016-12-12T00:54:00.423Z,76.54
2016-12-12T00:56:07.199Z,76.63
2016-12-12T00:57:21.054Z,76.54
2016-12-12T00:58:34.709Z,77.39
2016-12-12T00:59:48.654Z,76.92
2016-12-12T01:01:02.694Z,76.73
2016-12-12T01:02:18.244Z,76.63
2016-12-12T01:03:39.385Z,76.25
2016-12-12T01:05:01.988Z,76.44
2016-12-12T01:06:22.392Z,76.48
2016-12-12T01:07:41.636Z,76.29
2016-12-12T01:08:55.169Z,76.76
2016-12-12T01:10:08.814Z,76.96
2016-12-12T01:11:22.397Z,76.73
2016-12-12T01:12:35.973Z,77.2
2016-12-12T01:13:49.524Z,77.3
2016-12-12T01:15:03.079Z,78.1
2016-12-12T01:16:16.761Z,77.87
2016-12-12T01:17:30.638Z,77.87
2016-12-12T01:18:46.362Z,77.77
2016-12-12T01:19:59.939Z,78.25
2016-12-12T01:21:13.568Z,77.97
2016-12-12T01:22:24.711Z,77.87
2016-12-12T01:23:35.841Z,77.77
2016-12-12T01:24:46.976Z,78.44
2016-12-12T01:25:58.121Z,78.72
2016-12-12T01:27:09.412Z,78.82
2016-12-12T01:28:20.644Z,77.87
2016-12-12T01:29:31.759Z,77.97
2016-12-12T01:30:42.939Z,77.97
2016-12-12T01:31:54.168Z,77.53
2016-12-12T01:33:05.394Z,77.91
2016-12-12T01:34:18.388Z,77.72
2016-12-12T01:35:29.530Z,77.53
2016-12-12T01:36:40.642Z,77.53
2016-12-12T01:37:52.057Z,77.72
2016-12-12T01:39:03.168Z,77.81
2016-12-12T01:40:14.666Z,78.38
2016-12-12T01:41:25.800Z,78.57
2016-12-12T01:42:36.937Z,77.97
2016-12-12T01:43:48.057Z,77.68
2016-12-12T01:44:59.342Z,78.29
2016-12-12T01:46:10.459Z,78.1
2016-12-12T01:47:22.018Z,78.38
2016-12-12T01:48:33.141Z,78.19
2016-12-12T01:49:44.245Z,78.34
2016-12-12T01:50:55.421Z,77.87
2016-12-12T01:52:06.540Z,77.53
2016-12-12T01:53:17.731Z,77.81
2016-12-12T01:54:28.828Z,77.62
2016-12-12T01:55:39.978Z,77.81
2016-12-12T01:56:51.097Z,77.62
2016-12-12T01:58:02.297Z,77.91
2016-12-12T01:59:13.515Z,77.72
2016-12-12T02:00:24.668Z,77.72
2016-12-12T02:01:35.810Z,77.72
2016-12-12T02:02:46.931Z,77.81
2016-12-12T02:03:58.099Z,77.81
2016-12-12T02:05:09.667Z,78.1
2016-12-12T02:06:20.779Z,77.81
2016-12-12T02:07:31.909Z,78.1
2016-12-12T02:08:43.039Z,78.06
2016-12-12T02:09:54.213Z,78.25
2016-12-12T02:11:05.406Z,78.16
2016-12-12T02:12:16.543Z,78
2016-12-12T02:13:27.979Z,78.25
2016-12-12T02:14:39.103Z,78.63
2016-12-12T02:15:50.572Z,78.82
2016-12-12T02:17:01.775Z,78.53
2016-12-12T02:18:12.922Z,78.72
2016-12-12T02:19:24.028Z,78.44
2016-12-12T02:20:35.196Z,79.2
2016-12-12T02:21:46.329Z,79.11
2016-12-12T02:22:57.540Z,79.01
2016-12-12T02:24:08.738Z,79.2
2016-12-12T02:25:19.910Z,79.11
2016-12-12T02:26:31.076Z,79.3
2016-12-12T02:27:42.181Z,78.82
2016-12-12T02:28:53.378Z,79.01
2016-12-12T02:30:04.587Z,79.01
2016-12-12T02:31:15.719Z,78.91
2016-12-12T02:32:29.004Z,78.82
2016-12-12T02:33:40.127Z,78.91
2016-12-12T02:34:51.319Z,79.11
2016-12-12T02:36:02.529Z,79.2
2016-12-12T02:37:13.758Z,79.01
2016-12-12T02:39:51.163Z,78.82
2016-12-12T02:41:02.498Z,79.3
2016-12-12T02:42:13.743Z,79.86
2016-12-12T02:43:24.933Z,80.05
2016-12-12T02:44:36.057Z,79.77
2016-12-12T02:45:47.212Z,79.86
2016-12-12T02:46:58.333Z,79.86
2016-12-12T02:48:09.519Z,79.96
2016-12-12T02:49:20.650Z,80.44
2016-12-12T02:50:31.796Z,80.91
2016-12-12T02:51:42.946Z,81.01
2016-12-12T02:52:54.122Z,81.2
2016-12-12T02:54:05.297Z,81.67
2016-12-12T02:55:16.442Z,81.48
2016-12-12T02:56:27.582Z,81.2
2016-12-12T02:57:38.748Z,81.67
2016-12-12T02:58:49.860Z,81.38
2016-12-12T03:00:01.021Z,81.48
2016-12-12T03:01:12.164Z,81.01
2016-12-12T03:02:23.658Z,81.38
2016-12-12T03:03:34.822Z,81.38
2016-12-12T03:04:45.929Z,81.38
2016-12-12T03:05:57.057Z,81.86
2016-12-12T03:07:08.225Z,81.67
2016-12-12T03:08:19.339Z,81.67
2016-12-12T03:09:30.434Z,81.86
2016-12-12T03:10:41.589Z,81.86
2016-12-12T03:11:52.823Z,81.86
2016-12-12T03:13:04.273Z,81.38
2016-12-12T03:14:15.400Z,81.38
2016-12-12T03:15:26.556Z,81.38
2016-12-12T03:16:37.726Z,81.96
2016-12-12T03:17:48.845Z,82.53
2016-12-12T03:19:00.035Z,82.68
2016-12-12T03:20:11.186Z,82.53
2016-12-12T03:21:22.302Z,82.49
2016-12-12T03:22:33.464Z,82.34
2016-12-12T03:23:44.621Z,82.05
2016-12-12T03:24:55.766Z,82.05
2016-12-12T03:26:06.927Z,82.05
2016-12-12T03:27:18.040Z,81.96
2016-12-12T03:28:29.203Z,81.77
2016-12-12T03:29:40.383Z,81.86
2016-12-12T03:30:51.601Z,81.86
2016-12-12T03:32:03.074Z,82.05
2016-12-12T03:33:14.199Z,81.96
2016-12-12T03:34:25.332Z,82.24
2016-12-12T03:35:36.913Z,81.86
2016-12-12T03:36:48.091Z,81.38
2016-12-12T03:37:59.262Z,81.96
2016-12-12T03:39:10.463Z,81.77
2016-12-12T03:40:21.599Z,81.29
2016-12-12T03:41:32.727Z,81.48
2016-12-12T03:42:43.859Z,81.77
2016-12-12T03:43:55.032Z,81.77
2016-12-12T03:45:06.157Z,81.77
2016-12-12T03:46:19.443Z,81.48
2016-12-12T03:47:30.665Z,81.77
2016-12-12T03:48:41.900Z,81.48
2016-12-12T03:49:53.133Z,81.86
2016-12-12T03:51:04.316Z,81.29
2016-12-12T03:52:15.467Z,81.86
2016-12-12T03:53:26.650Z,82.05
2016-12-12T03:54:37.832Z,81.92
2016-12-12T03:55:49.017Z,82.01
2016-12-12T03:57:00.136Z,82.62
2016-12-12T03:58:11.278Z,82.2
2016-12-12T03:59:22.442Z,82.58
2016-12-12T04:00:33.569Z,82.29
2016-12-12T04:01:44.728Z,82.49
2016-12-12T04:02:56.157Z,82.58
2016-12-12T04:04:07.402Z,82.2
2016-12-12T04:05:18.526Z,82.29
2016-12-12T04:06:29.648Z,82.2
2016-12-12T04:07:40.768Z,81.82
2016-12-12T04:08:51.931Z,82.29
2016-12-12T04:10:03.131Z,82.2
2016-12-12T04:11:14.320Z,81.92
2016-12-12T04:12:25.429Z,82.1
2016-12-12T04:13:36.603Z,82.29
2016-12-12T04:14:47.739Z,82.29
2016-12-12T04:15:58.934Z,82.49
2016-12-12T04:17:10.067Z,82.49
2016-12-12T04:18:21.226Z,82.49
2016-12-12T04:19:32.325Z,82.58
2016-12-12T04:20:43.495Z,82.39
2016-12-12T04:21:54.627Z,82.01
2016-12-12T04:23:05.831Z,82.29
2016-12-12T04:24:17.007Z,82.29
2016-12-12T04:25:28.139Z,82.77
2016-12-12T04:26:39.277Z,82.68
2016-12-12T04:27:50.413Z,82.29
2016-12-12T04:29:01.573Z,82.49
2016-12-12T04:30:12.755Z,82.68
2016-12-12T04:31:23.971Z,82.49
2016-12-12T04:32:35.239Z,82.77
2016-12-12T04:33:46.465Z,82.58
2016-12-12T04:34:57.702Z,82.2
2016-12-12T04:36:08.881Z,82.29
2016-12-12T04:37:20.001Z,82.1
2016-12-12T04:38:31.127Z,82.1
2016-12-12T04:39:42.301Z,82.29
2016-12-12T04:40:53.479Z,82.87
2016-12-12T04:42:04.751Z,83.15
2016-12-12T04:43:15.927Z,83.53
2016-12-12T04:44:27.042Z,83.44
2016-12-12T04:45:38.254Z,83.72
2016-12-12T04:46:49.446Z,83.91
2016-12-12T04:48:00.638Z,84.1
2016-12-12T04:49:11.785Z,84.29
2016-12-12T04:50:22.900Z,84.01
2016-12-12T04:51:34.092Z,83.91
2016-12-12T04:52:45.311Z,83.91
2016-12-12T04:53:56.489Z,84.2
2016-12-12T04:55:07.695Z,84.82
2016-12-12T04:56:19.301Z,84.39
2016-12-12T04:57:30.423Z,84.82
2016-12-12T04:58:41.872Z,85.01
2016-12-12T04:59:55.308Z,85.58
2016-12-12T05:01:06.553Z,85.58
2016-12-12T05:02:17.812Z,85.39
2016-12-12T05:03:29.787Z,85.58
2016-12-12T05:04:43.682Z,85.3
2016-12-12T05:05:54.882Z,85.3
2016-12-12T05:07:06.022Z,85.58
2016-12-12T05:08:17.242Z,85.39
2016-12-12T05:09:28.339Z,85.39
2016-12-12T05:10:39.515Z,85.77
2016-12-12T05:11:50.708Z,85.77
2016-12-12T05:13:01.829Z,85.77
2016-12-12T05:14:12.983Z,85.68
2016-12-12T05:15:24.091Z,86.53
2016-12-12T05:16:35.285Z,85.68
2016-12-12T05:17:46.434Z,85.77
2016-12-12T05:18:57.605Z,85.77
2016-12-12T05:20:08.723Z,85.77
2016-12-12T05:21:19.856Z,85.58
2016-12-12T05:22:31.027Z,85.77
2016-12-12T05:23:42.201Z,86.15
2016-12-12T05:24:53.347Z,86.05
2016-12-12T05:26:04.633Z,86.05
2016-12-12T05:27:15.996Z,85.86
2016-12-12T05:28:27.349Z,85.96
2016-12-12T05:29:39.049Z,86.05
2016-12-12T05:30:50.273Z,86.24
2016-12-12T05:32:01.863Z,88.81
2016-12-12T05:33:13.179Z,86.95
2016-12-12T05:34:24.563Z,85.72
2016-12-12T05:35:36.016Z,85.91
2016-12-12T05:36:47.325Z,83.95
2016-12-12T05:37:59.025Z,82.71
2016-12-12T05:39:10.299Z,81.96
2016-12-12T05:40:21.480Z,82.62
2016-12-12T05:41:32.718Z,82.53
2016-12-12T05:42:43.979Z,82.96
2016-12-12T05:43:55.102Z,83.44
2016-12-12T05:45:19.559Z,83.62
2016-12-12T05:46:30.833Z,83.72
2016-12-12T05:47:42.571Z,83.82
2016-12-12T05:48:53.990Z,83.62
2016-12-12T05:50:05.385Z,83.72
2016-12-12T05:51:16.591Z,83.53
2016-12-12T05:52:27.880Z,84.1
2016-12-12T05:53:39.367Z,83.91
2016-12-12T05:54:50.883Z,83.62
2016-12-12T05:56:02.774Z,83.72
2016-12-12T05:57:13.979Z,84.2
2016-12-12T05:58:25.367Z,83.72
2016-12-12T05:59:36.898Z,83.72
2016-12-12T06:00:48.486Z,83.53
2016-12-12T06:01:59.628Z,83.34
2016-12-12T06:03:12.233Z,83.44
2016-12-12T06:04:23.376Z,83.53
2016-12-12T06:05:34.808Z,83.72
2016-12-12T06:06:45.993Z,83.25
2016-12-12T06:07:57.130Z,83.34
2016-12-12T06:09:08.331Z,83.72
2016-12-12T06:10:19.465Z,84.01
2016-12-12T06:11:30.614Z,83.91
2016-12-12T06:12:42.118Z,83.91
2016-12-12T06:13:55.554Z,84.1
2016-12-12T06:15:06.731Z,84.1
2016-12-12T06:16:18.160Z,83.44
2016-12-12T06:17:44.531Z,83.72
2016-12-12T06:18:55.968Z,83.53
2016-12-12T06:20:07.243Z,83.15
2016-12-12T06:21:18.419Z,83.15
2016-12-12T06:22:29.794Z,83.44
2016-12-12T06:23:40.983Z,83.06
2016-12-12T06:24:52.368Z,83.34
2016-12-12T06:26:03.472Z,83.25
2016-12-12T06:27:15.179Z,83.2
2016-12-12T06:28:26.411Z,83.25
2016-12-12T06:29:37.942Z,83.15
2016-12-12T06:30:49.279Z,83.01
2016-12-12T06:32:01.138Z,83.01
2016-12-12T06:33:12.321Z,83.3
2016-12-12T06:34:23.943Z,84.06
2016-12-12T06:35:35.150Z,83.87
2016-12-12T06:36:46.286Z,84.25
2016-12-12T06:37:57.439Z,84.06
2016-12-12T06:39:08.570Z,84.44
2016-12-12T06:40:19.723Z,85.01
2016-12-12T06:41:30.836Z,85.3
2016-12-12T06:42:42.254Z,85.68
2016-12-12T06:43:53.424Z,85.58
2016-12-12T06:45:04.565Z,85.39
2016-12-12T06:46:15.894Z,85.39
2016-12-12T06:47:27.292Z,85.49
2016-12-12T06:48:38.425Z,84.82
2016-12-12T06:49:49.610Z,85.2
2016-12-12T06:51:01.078Z,84.72
2016-12-12T06:52:12.242Z,84.44
2016-12-12T06:53:23.415Z,84.34
2016-12-12T06:54:34.850Z,84.67
2016-12-12T06:55:46.047Z,84.48
2016-12-12T06:56:57.389Z,84.58
2016-12-12T06:58:08.568Z,83.91
2016-12-12T06:59:20.268Z,84.01
2016-12-12T07:00:31.393Z,84.1
2016-12-12T07:01:42.554Z,83.72
2016-12-12T07:02:53.740Z,83.25
2016-12-12T07:04:04.910Z,83.62
2016-12-12T07:05:16.168Z,84.1
2016-12-12T07:06:27.551Z,84.1
2016-12-12T07:07:38.710Z,84.1
2016-12-12T07:08:50.180Z,83.91
2016-12-12T07:10:01.694Z,83.44
2016-12-12T07:11:12.867Z,83.25
2016-12-12T07:12:24.038Z,83.62
2016-12-12T07:13:35.210Z,83.97
2016-12-12T07:14:46.820Z,83.91
2016-12-12T07:15:58.086Z,84.16
2016-12-12T07:17:09.819Z,84.82
2016-12-12T07:18:20.992Z,86.15
2016-12-12T07:19:32.129Z,86.34
2016-12-12T07:20:43.318Z,86.05
2016-12-12T07:21:55.312Z,85.96
2016-12-12T07:23:06.428Z,86.05
2016-12-12T07:24:17.574Z,86.05
2016-12-12T07:25:29.021Z,86.05
2016-12-12T07:26:40.131Z,85.86
2016-12-12T07:27:53.551Z,85.58
2016-12-12T07:29:04.688Z,85.58
2016-12-12T07:30:15.884Z,85.39
2016-12-12T07:31:27.263Z,85.39
2016-12-12T07:32:38.766Z,85.2
2016-12-12T07:33:50.209Z,85.49
2016-12-12T07:35:01.343Z,85.11
2016-12-12T07:36:12.475Z,85.01
2016-12-12T07:37:23.844Z,84.72
2016-12-12T07:38:35.020Z,85.01
2016-12-12T07:39:46.207Z,84.53
2016-12-12T07:40:57.387Z,84.77
2016-12-12T07:42:08.523Z,84.63
2016-12-12T07:43:19.904Z,84.67
2016-12-12T07:44:31.100Z,85.01
2016-12-12T07:45:42.366Z,84.67
2016-12-12T07:46:53.558Z,84.1
2016-12-12T07:48:04.675Z,84.39
2016-12-12T07:49:16.064Z,83.91
2016-12-12T07:50:27.168Z,83.91
2016-12-12T07:51:38.384Z,84.29
2016-12-12T07:52:49.558Z,84.1
2016-12-12T07:54:01.376Z,84.29
2016-12-12T07:55:12.488Z,84.01
2016-12-12T07:56:23.887Z,83.91
2016-12-12T07:57:35.387Z,83.82
2016-12-12T07:58:46.921Z,83.91
2016-12-12T07:59:58.072Z,84.01
2016-12-12T08:01:09.214Z,84.1
2016-12-12T08:02:20.620Z,84.01
2016-12-12T08:03:31.795Z,83.25
2016-12-12T08:04:42.990Z,83.25
2016-12-12T08:05:54.151Z,83.34
2016-12-12T08:07:05.633Z,83.44
2016-12-12T08:08:17.269Z,83.44
2016-12-12T08:09:28.442Z,83.44
2016-12-12T08:10:39.858Z,83.25
2016-12-12T08:11:51.106Z,83.15
2016-12-12T08:13:02.261Z,83.25
2016-12-12T08:14:13.397Z,83.25
2016-12-12T08:15:24.577Z,83.25
2016-12-12T08:16:35.758Z,83.34
2016-12-12T08:17:47.513Z,82.87
2016-12-12T08:18:58.645Z,82.58
2016-12-12T08:20:09.770Z,83.06
2016-12-12T08:21:21.026Z,82.96
2016-12-12T08:22:32.824Z,82.43
2016-12-12T08:23:44.011Z,82.77
2016-12-12T08:24:55.123Z,82.58
2016-12-12T08:26:06.515Z,82.81
2016-12-12T08:27:17.704Z,82.62
2016-12-12T08:28:28.853Z,82.49
2016-12-12T08:29:40.056Z,82.58
2016-12-12T08:30:52.179Z,82.29
2016-12-12T08:32:07.417Z,82.24
2016-12-12T08:33:18.609Z,82.15
2016-12-12T08:34:29.860Z,82.29
2016-12-12T08:35:41.019Z,82.29
2016-12-12T08:36:52.269Z,82.34
2016-12-12T08:38:03.707Z,82.15
2016-12-12T08:39:15.141Z,82.34
2016-12-12T08:42:53.789Z,82.53
2016-12-12T08:44:04.935Z,82.34
2016-12-12T08:45:16.585Z,82.34
2016-12-12T08:46:27.738Z,82.62
2016-12-12T08:47:38.943Z,82.39
2016-12-12T08:48:50.068Z,82.53
2016-12-12T08:50:01.184Z,82.43
2016-12-12T08:51:12.310Z,82.24
2016-12-12T08:52:23.752Z,82.05
2016-12-12T08:53:34.929Z,81.86
2016-12-12T08:54:46.059Z,81.48
2016-12-12T08:55:57.249Z,81.77
2016-12-12T08:57:08.385Z,81.86
2016-12-12T08:58:19.629Z,81.77
2016-12-12T08:59:31.509Z,81.67
2016-12-12T09:00:42.779Z,81.29
2016-12-12T09:01:53.909Z,81.38
2016-12-12T09:03:05.055Z,81.67
2016-12-12T09:04:16.240Z,81.77
2016-12-12T09:05:27.728Z,81.67
2016-12-12T09:06:38.866Z,81.48
2016-12-12T09:07:50.030Z,81.77
2016-12-12T09:09:01.194Z,81.67
2016-12-12T09:10:12.383Z,81.96
2016-12-12T09:11:23.570Z,81.58
2016-12-12T09:12:35.300Z,81.96
2016-12-12T09:13:46.462Z,82.34
2016-12-12T09:14:57.590Z,82.15
2016-12-12T09:16:08.855Z,82.15
2016-12-12T09:17:20.357Z,81.48
2016-12-12T09:18:31.542Z,81.96
2016-12-12T09:19:42.694Z,81.38
2016-12-12T09:20:54.153Z,81.38
2016-12-12T09:22:05.583Z,81.29
2016-12-12T09:23:16.775Z,81.1
2016-12-12T09:24:28.006Z,81.58
2016-12-12T09:25:39.168Z,80.91
2016-12-12T09:26:50.332Z,80.95
2016-12-12T09:28:01.496Z,81.05
2016-12-12T09:29:12.684Z,80.57
2016-12-12T09:30:24.047Z,79.81
2016-12-12T09:31:35.500Z,80
2016-12-12T09:32:46.734Z,80
2016-12-12T09:33:57.939Z,80.38
2016-12-12T09:35:09.120Z,80
2016-12-12T09:36:20.503Z,80.1
2016-12-12T09:37:31.663Z,80
2016-12-12T09:38:42.917Z,80
2016-12-12T09:39:54.146Z,80
2016-12-12T09:41:05.387Z,80.19
2016-12-12T09:42:16.918Z,79.81
2016-12-12T09:43:28.323Z,79.72
2016-12-12T09:44:39.751Z,79.52
2016-12-12T09:45:50.924Z,80.1
2016-12-12T09:47:02.117Z,80
2016-12-12T09:48:13.287Z,79.72
2016-12-12T09:49:24.440Z,79.91
2016-12-12T09:50:35.615Z,79.72
2016-12-12T09:51:47.035Z,79.33
2016-12-12T09:52:58.211Z,79.62
2016-12-12T09:54:09.685Z,79.62
2016-12-12T09:55:20.834Z,79.91
2016-12-12T09:56:54.061Z,79.62
2016-12-12T09:58:20.180Z,79.62
2016-12-12T09:59:31.567Z,79.62
2016-12-12T10:00:42.801Z,79.62
2016-12-12T10:01:54.128Z,79.52
2016-12-12T10:03:05.295Z,79.24
2016-12-12T10:05:43.672Z,79.24
2016-12-12T10:06:54.996Z,79.05
2016-12-12T10:08:06.340Z,78.96
2016-12-12T10:09:17.816Z,79.05
2016-12-12T10:10:29.220Z,79.24
2016-12-12T10:11:40.363Z,78.77
2016-12-12T10:12:51.524Z,79.33
2016-12-12T10:14:03.024Z,78.86
2016-12-12T10:15:14.481Z,78.86
2016-12-12T10:16:26.209Z,78.86
2016-12-12T10:17:37.660Z,78.96
2016-12-12T10:18:48.819Z,78.77
2016-12-12T10:20:00.081Z,78.96
2016-12-12T10:21:11.659Z,78.67
2016-12-12T10:22:23.031Z,78.86
2016-12-12T10:23:34.249Z,79.52
2016-12-12T10:24:45.555Z,79.91
2016-12-12T10:25:57.023Z,79.33
2016-12-12T10:27:08.737Z,79.72
2016-12-12T10:28:20.178Z,79.52
2016-12-12T10:29:31.331Z,79.24
2016-12-12T10:30:42.526Z,78.77
2016-12-12T10:31:53.690Z,78.77
2016-12-12T10:33:04.822Z,78.57
2016-12-12T10:34:16.293Z,78.9
2016-12-12T10:35:27.478Z,78.52
2016-12-12T10:36:38.934Z,78.8
2016-12-12T10:37:50.117Z,78.57
2016-12-12T10:39:01.275Z,78.42
2016-12-12T10:40:12.906Z,78.33
2016-12-12T10:41:24.066Z,78.9
2016-12-12T10:42:35.344Z,78.33
2016-12-12T10:43:46.775Z,78.52
2016-12-12T10:44:57.978Z,78.8
2016-12-12T10:46:09.363Z,78.52
2016-12-12T10:47:20.781Z,78.33
2016-12-12T10:48:32.111Z,78.23
2016-12-12T10:49:43.653Z,78.61
2016-12-12T10:50:54.787Z,78.86
2016-12-12T10:52:06.153Z,78.67
2016-12-12T10:53:17.543Z,78.52
2016-12-12T10:54:28.756Z,78.23
2016-12-12T10:55:39.915Z,78.04
2016-12-12T10:56:51.345Z,78.04
2016-12-12T10:58:02.489Z,77.95
2016-12-12T10:59:13.721Z,78.33
2016-12-12T11:00:25.172Z,78.23
2016-12-12T11:01:36.771Z,78.04
2016-12-12T11:02:47.984Z,78.04
2016-12-12T11:03:59.654Z,77.85
2016-12-12T11:05:10.814Z,77.76
2016-12-12T11:06:21.983Z,77.56
2016-12-12T11:07:33.380Z,77.95
2016-12-12T11:08:44.579Z,77.47
2016-12-12T11:09:56.273Z,79.47
2016-12-12T11:11:09.615Z,79.09
2016-12-12T11:12:20.751Z,77.95
2016-12-12T11:13:31.944Z,77.76
2016-12-12T11:14:43.141Z,77.19
2016-12-12T11:15:54.580Z,77.37
2016-12-12T11:17:06.004Z,77.47
2016-12-12T11:18:17.118Z,77.37
2016-12-12T11:19:28.250Z,76.84
2016-12-12T11:20:39.472Z,76.84
2016-12-12T11:21:50.860Z,76.84
2016-12-12T11:23:02.645Z,76.65
2016-12-12T11:24:14.028Z,77.13
2016-12-12T11:25:25.159Z,77.09
2016-12-12T11:26:36.303Z,77.28
2016-12-12T11:27:50.407Z,77
2016-12-12T11:29:04.117Z,76.71
2016-12-12T11:30:17.941Z,77.28
2016-12-12T11:31:31.723Z,77.37
2016-12-12T11:32:45.298Z,77.28
2016-12-12T11:33:59.245Z,76.65
2016-12-12T11:35:12.768Z,76.65
2016-12-12T11:36:26.423Z,77.19
2016-12-12T11:37:40.009Z,77.22
2016-12-12T11:38:53.558Z,77.09
2016-12-12T11:40:07.639Z,77.66
2016-12-12T11:41:21.192Z,77.47
2016-12-12T11:42:35.238Z,77.37
2016-12-12T11:43:48.815Z,76.9
2016-12-12T11:45:02.648Z,77
2016-12-12T11:46:16.451Z,77.09
2016-12-12T11:47:30.068Z,77.19
2016-12-12T11:48:43.941Z,77.19
2016-12-12T11:49:57.823Z,77
2016-12-12T11:51:11.517Z,76.71
2016-12-12T11:52:25.392Z,77.28
2016-12-12T11:53:38.918Z,77.28
2016-12-12T11:54:52.525Z,76.81
2016-12-12T11:56:06.359Z,76.9
2016-12-12T11:57:20.279Z,77.09
2016-12-12T11:58:34.147Z,77
2016-12-12T11:59:47.708Z,77.28
2016-12-12T12:01:01.359Z,76.9
2016-12-12T12:02:15.353Z,76.9
2016-12-12T12:03:29.465Z,76.81
2016-12-12T12:04:43.308Z,77.37
2016-12-12T12:05:57.323Z,77.47
2016-12-12T12:07:10.822Z,77.47
2016-12-12T12:08:24.423Z,77.19
2016-12-12T12:09:38.185Z,77.28
2016-12-12T12:10:52.038Z,77.09
2016-12-12T12:12:05.802Z,77.95
2016-12-12T12:13:19.366Z,78.33
2016-12-12T12:14:32.995Z,78.14
2016-12-12T12:15:46.860Z,78.33
2016-12-12T12:17:00.711Z,77.85
2016-12-12T12:18:14.704Z,77.76
2016-12-12T12:19:28.222Z,77.76
2016-12-12T12:20:41.878Z,77.76
2016-12-12T12:21:55.792Z,77.76
2016-12-12T12:23:09.323Z,77.56
2016-12-12T12:24:22.855Z,77.47
2016-12-12T12:25:36.435Z,77.47
2016-12-12T12:26:52.246Z,77.47
2016-12-12T12:28:05.822Z,76.71
2016-12-12T12:29:19.662Z,76.9
2016-12-12T12:30:33.222Z,77.09
2016-12-12T12:31:46.894Z,77.09
2016-12-12T12:33:01.078Z,76.71
2016-12-12T12:34:14.961Z,76.52
2016-12-12T12:35:28.864Z,76.9
2016-12-12T12:36:42.612Z,77
2016-12-12T12:37:56.519Z,76.9
2016-12-12T12:39:10.332Z,77.37
2016-12-12T12:40:23.858Z,77.28
2016-12-12T12:41:37.708Z,77.09
2016-12-12T12:42:51.405Z,77.28
2016-12-12T12:44:05.185Z,77
2016-12-12T12:45:18.767Z,77.28
2016-12-12T12:46:32.365Z,76.84
2016-12-12T12:47:45.983Z,77.56
2016-12-12T12:48:59.612Z,77.09
2016-12-12T12:50:13.187Z,77.85
2016-12-12T12:51:26.982Z,77.76
2016-12-12T12:52:40.567Z,77.76
2016-12-12T12:53:54.668Z,77.66
2016-12-12T12:55:08.242Z,77.28
2016-12-12T12:56:22.332Z,77.47
2016-12-12T12:57:35.884Z,77.76
2016-12-12T12:58:49.838Z,77.85
2016-12-12T13:00:03.727Z,77.76
2016-12-12T13:01:17.345Z,77.76
2016-12-12T13:02:31.374Z,77.76
2016-12-12T13:03:48.007Z,77.66
2016-12-12T13:05:02.153Z,77.95
2016-12-12T13:06:15.992Z,77.66
2016-12-12T13:07:29.534Z,77.66
2016-12-12T13:08:43.103Z,78.52
2016-12-12T13:09:56.731Z,77.56
2016-12-12T13:11:10.356Z,78.04
2016-12-12T13:12:23.994Z,77.66
2016-12-12T13:13:37.546Z,77.76
2016-12-12T13:14:51.609Z,77.09
2016-12-12T13:16:05.295Z,77.47
2016-12-12T13:17:19.413Z,77.76
2016-12-12T13:18:33.264Z,77.47
2016-12-12T13:19:47.290Z,77.47
2016-12-12T13:21:00.830Z,78.42
2016-12-12T13:22:14.518Z,77.85
2016-12-12T13:23:28.102Z,76.71
2016-12-12T13:24:42.386Z,76.84
2016-12-12T13:25:55.936Z,77.09
2016-12-12T13:27:09.857Z,77
2016-12-12T13:28:23.766Z,77.37
2016-12-12T13:29:37.295Z,77.47
2016-12-12T13:30:51.065Z,78.33
2016-12-12T13:32:04.626Z,78.04
2016-12-12T13:33:18.476Z,77.95
2016-12-12T13:34:32.741Z,77.37
2016-12-12T13:35:46.482Z,77.66
2016-12-12T13:37:00.299Z,77.95
2016-12-12T13:38:15.402Z,77.47
2016-12-12T13:39:29.428Z,77.56
2016-12-12T13:40:43.009Z,77.37
2016-12-12T13:41:56.766Z,77.28
2016-12-12T13:43:12.795Z,77.95
2016-12-12T13:44:26.859Z,77.76
2016-12-12T13:45:40.665Z,77.37
2016-12-12T13:46:54.807Z,77
2016-12-12T13:48:08.414Z,77.19
2016-12-12T13:49:23.786Z,77.76
2016-12-12T13:50:37.516Z,78.42
2016-12-12T13:51:51.333Z,78.14
2016-12-12T13:53:05.471Z,78.52
2016-12-12T13:54:19.116Z,78.23
2016-12-12T13:55:34.683Z,78.14
2016-12-12T13:56:51.245Z,78.33
2016-12-12T13:58:04.847Z,77.95
2016-12-12T13:59:18.433Z,78.14
2016-12-12T14:00:32.505Z,79.09
2016-12-12T14:01:46.809Z,78.99
2016-12-12T14:03:00.476Z,78.61
2016-12-12T14:04:14.110Z,78.42
2016-12-12T14:05:28.059Z,78.33
2016-12-12T14:06:42.590Z,78.23
2016-12-12T14:07:56.732Z,77.56
2016-12-12T14:09:10.763Z,78.61
2016-12-12T14:10:24.837Z,78.23
2016-12-12T14:11:39.095Z,78.42
2016-12-12T14:12:53.019Z,78.8
2016-12-12T14:14:07.057Z,79.09
2016-12-12T14:15:21.072Z,78.96
2016-12-12T14:16:34.748Z,79.43
2016-12-12T14:17:49.775Z,79.52
2016-12-12T14:19:04.485Z,79.52
2016-12-12T14:20:18.749Z,79.72
2016-12-12T14:21:32.456Z,79.38
2016-12-12T14:22:46.243Z,79.28
2016-12-12T14:24:00.331Z,79.19
2016-12-12T14:25:34.326Z,78.42
2016-12-12T14:26:47.888Z,78.9
2016-12-12T14:28:01.694Z,78.61
2016-12-12T14:29:16.182Z,78.61
2016-12-12T14:30:30.210Z,78.42
2016-12-12T14:31:44.217Z,78.61
2016-12-12T14:32:58.625Z,78.61
2016-12-12T14:34:12.245Z,78.52
2016-12-12T14:35:26.508Z,78.33
2016-12-12T14:36:40.200Z,78.33
2016-12-12T14:37:53.808Z,78.71
2016-12-12T14:39:07.959Z,78.33
2016-12-12T14:40:21.910Z,78.71
2016-12-12T14:41:35.517Z,78.52
2016-12-12T14:42:49.384Z,78.71
2016-12-12T14:44:03.477Z,78.33
2016-12-12T14:45:17.727Z,78.52
2016-12-12T14:46:31.952Z,78.42
2016-12-12T14:47:45.609Z,78.8
2016-12-12T14:48:59.517Z,78.52
2016-12-12T14:50:13.092Z,78.33
2016-12-12T14:51:27.999Z,78.42
2016-12-12T14:52:41.754Z,78.61
2016-12-12T14:53:55.423Z,78.61
2016-12-12T14:55:09.077Z,78.8
2016-12-12T14:56:23.649Z,78.52
2016-12-12T14:57:37.739Z,79.47
2016-12-12T14:58:51.453Z,78.99
2016-12-12T15:00:07.906Z,78.67
2016-12-12T15:01:21.550Z,79.14
2016-12-12T15:02:35.682Z,79.33
2016-12-12T15:03:49.739Z,78.96
2016-12-12T15:05:04.003Z,78.67
2016-12-12T15:06:19.016Z,79.43
2016-12-12T15:07:33.533Z,78.9
2016-12-12T15:08:47.485Z,78.77
2016-12-12T15:10:01.609Z,79.14
2016-12-12T15:11:15.390Z,79.33
2016-12-12T15:12:29.197Z,79.19
2016-12-12T15:13:40.638Z,79.62
2016-12-12T15:14:51.865Z,79.62
2016-12-12T15:16:03.523Z,79.52
2016-12-12T15:17:15.659Z,79.81
2016-12-12T15:18:27.025Z,80
2016-12-12T15:19:38.600Z,80.19
2016-12-12T15:20:49.764Z,80.19
2016-12-12T15:22:01.494Z,80.19
2016-12-12T15:23:12.762Z,79.91
2016-12-12T15:24:23.987Z,79.81
2016-12-12T15:25:35.138Z,80
2016-12-12T15:26:46.279Z,80.86
2016-12-12T15:27:57.682Z,79.72
2016-12-12T15:29:09.536Z,80.19
2016-12-12T15:30:21.961Z,80.86
2016-12-12T15:31:33.104Z,80.76
2016-12-12T15:32:44.275Z,80.76
2016-12-12T15:33:55.829Z,80.86
2016-12-12T15:35:06.992Z,81.05
2016-12-12T15:36:18.482Z,80.86
2016-12-12T15:37:29.703Z,80.86
2016-12-12T15:38:40.907Z,80.76
2016-12-12T15:39:53.525Z,81.14
2016-12-12T15:41:04.893Z,81.14
2016-12-12T15:42:16.141Z,81.48